sensor_id;sensor_type;location;lat;lon;timestamp;pressure;altitude;pressure_sealevel;temperature;humidity
40730;BME280;26418;50.070;8.436;2022-07-29T00:02:09;99870.09;;;22.69;34.40
40730;BME280;26418;50.070;8.436;2022-07-29T00:04:36;99888.25;;;22.73;34.77
40730;BME280;26418;50.070;8.436;2022-07-29T00:07:02;99891.75;;;22.70;34.99
40730;BME280;26418;50.070;8.436;2022-07-29T00:09:28;99882.31;;;22.71;35.37
40730;BME280;26418;50.070;8.436;2022-07-29T00:11:54;99888.59;;;22.72;35.09
40730;BME280;26418;50.070;8.436;2022-07-29T00:14:21;99884.66;;;22.73;34.63
40730;BME280;26418;50.070;8.436;2022-07-29T00:16:47;99881.13;;;22.72;34.55
40730;BME280;26418;50.070;8.436;2022-07-29T00:19:13;99869.69;;;22.70;34.68
40730;BME280;26418;50.070;8.436;2022-07-29T00:21:38;99866.16;;;22.70;34.60
40730;BME280;26418;50.070;8.436;2022-07-29T00:24:04;99854.31;;;22.66;34.68
40730;BME280;26418;50.070;8.436;2022-07-29T00:26:29;99851.22;;;22.74;34.61
40730;BME280;26418;50.070;8.436;2022-07-29T00:29:00;99854.78;;;22.79;34.15
40730;BME280;26418;50.070;8.436;2022-07-29T00:31:26;99855.94;;;22.77;34.42
40730;BME280;26418;50.070;8.436;2022-07-29T00:33:52;99849.22;;;22.71;35.09
40730;BME280;26418;50.070;8.436;2022-07-29T00:36:17;99855.53;;;22.72;36.18
40730;BME280;26418;50.070;8.436;2022-07-29T00:38:43;99842.88;;;22.64;36.21
40730;BME280;26418;50.070;8.436;2022-07-29T00:41:11;99837.72;;;22.58;35.76
40730;BME280;26418;50.070;8.436;2022-07-29T00:43:37;99837.31;;;22.56;35.87
40730;BME280;26418;50.070;8.436;2022-07-29T00:46:02;99836.88;;;22.51;35.40
40730;BME280;26418;50.070;8.436;2022-07-29T00:48:28;99821.13;;;22.48;35.99
40730;BME280;26418;50.070;8.436;2022-07-29T00:50:53;99819.94;;;22.45;35.84
40730;BME280;26418;50.070;8.436;2022-07-29T00:53:20;99821.47;;;22.42;35.03
40730;BME280;26418;50.070;8.436;2022-07-29T00:55:46;99813.22;;;22.42;35.35
40730;BME280;26418;50.070;8.436;2022-07-29T00:58:12;99815.97;;;22.46;34.90
40730;BME280;26418;50.070;8.436;2022-07-29T01:00:39;99820.34;;;22.51;34.54
40730;BME280;26418;50.070;8.436;2022-07-29T01:03:06;99821.56;;;22.53;34.60
40730;BME280;26418;50.070;8.436;2022-07-29T01:05:32;99818.81;;;22.57;34.64
40730;BME280;26418;50.070;8.436;2022-07-29T01:07:59;99814.47;;;22.52;34.84
40730;BME280;26418;50.070;8.436;2022-07-29T01:10:25;99808.94;;;22.49;35.21
40730;BME280;26418;50.070;8.436;2022-07-29T01:12:52;99804.56;;;22.40;35.36
40730;BME280;26418;50.070;8.436;2022-07-29T01:15:19;99804.88;;;22.35;35.72
40730;BME280;26418;50.070;8.436;2022-07-29T01:18:01;99802.47;;;22.30;35.70
40730;BME280;26418;50.070;8.436;2022-07-29T01:28:49;99794.13;;;22.16;36.30
40730;BME280;26418;50.070;8.436;2022-07-29T01:31:25;99778.72;;;22.07;36.41
40730;BME280;26418;50.070;8.436;2022-07-29T01:33:58;99785.00;;;22.08;36.72
40730;BME280;26418;50.070;8.436;2022-07-29T01:36:36;99795.28;;;22.14;36.71
40730;BME280;26418;50.070;8.436;2022-07-29T01:39:07;99789.00;;;22.18;36.99
40730;BME280;26418;50.070;8.436;2022-07-29T01:41:37;99786.22;;;22.14;37.11
40730;BME280;26418;50.070;8.436;2022-07-29T01:44:37;99792.53;;;22.14;37.40
40730;BME280;26418;50.070;8.436;2022-07-29T01:47:12;99788.22;;;22.13;37.91
40730;BME280;26418;50.070;8.436;2022-07-29T01:49:43;99784.22;;;22.07;38.66
40730;BME280;26418;50.070;8.436;2022-07-29T01:52:13;99790.84;;;21.99;38.62
40730;BME280;26418;50.070;8.436;2022-07-29T01:54:49;99792.38;;;21.93;39.13
40730;BME280;26418;50.070;8.436;2022-07-29T01:57:18;99785.66;;;21.90;38.73
40730;BME280;26418;50.070;8.436;2022-07-29T01:59:47;99787.59;;;21.86;38.83
40730;BME280;26418;50.070;8.436;2022-07-29T02:02:15;99782.88;;;21.87;39.21
40730;BME280;26418;50.070;8.436;2022-07-29T02:04:42;99783.72;;;21.91;39.76
40730;BME280;26418;50.070;8.436;2022-07-29T02:07:12;99780.56;;;21.92;40.12
40730;BME280;26418;50.070;8.436;2022-07-29T02:09:40;99780.56;;;21.92;40.82
40730;BME280;26418;50.070;8.436;2022-07-29T02:12:07;99770.66;;;21.84;41.10
40730;BME280;26418;50.070;8.436;2022-07-29T02:14:37;99777.28;;;21.76;41.00
40730;BME280;26418;50.070;8.436;2022-07-29T02:17:03;99789.81;;;21.70;41.19
40730;BME280;26418;50.070;8.436;2022-07-29T02:19:32;99783.97;;;21.75;42.38
40730;BME280;26418;50.070;8.436;2022-07-29T02:21:59;99785.91;;;21.74;43.84
40730;BME280;26418;50.070;8.436;2022-07-29T02:24:25;99796.06;;;21.66;45.27
40730;BME280;26418;50.070;8.436;2022-07-29T02:26:53;99792.03;;;21.57;47.19
40730;BME280;26418;50.070;8.436;2022-07-29T02:29:25;99788.72;;;21.40;48.53
40730;BME280;26418;50.070;8.436;2022-07-29T02:31:52;99785.75;;;21.22;49.86
40730;BME280;26418;50.070;8.436;2022-07-29T02:34:20;99784.00;;;21.03;50.11
40730;BME280;26418;50.070;8.436;2022-07-29T02:36:46;99776.69;;;20.84;52.03
40730;BME280;26418;50.070;8.436;2022-07-29T02:39:14;99771.84;;;20.73;52.80
40730;BME280;26418;50.070;8.436;2022-07-29T02:41:46;99772.00;;;20.57;54.00
40730;BME280;26418;50.070;8.436;2022-07-29T02:44:14;99771.44;;;20.45;54.78
40730;BME280;26418;50.070;8.436;2022-07-29T02:47:06;99782.53;;;20.25;55.91
40730;BME280;26418;50.070;8.436;2022-07-29T02:50:00;99787.06;;;20.14;57.87
40730;BME280;26418;50.070;8.436;2022-07-29T02:57:36;99776.78;;;19.84;59.30
40730;BME280;26418;50.070;8.436;2022-07-29T03:00:07;99778.59;;;19.76;59.88
40730;BME280;26418;50.070;8.436;2022-07-29T03:02:36;99781.22;;;19.69;60.53
40730;BME280;26418;50.070;8.436;2022-07-29T03:05:03;99776.06;;;19.63;60.94
40730;BME280;26418;50.070;8.436;2022-07-29T03:07:29;99777.44;;;19.54;61.80
40730;BME280;26418;50.070;8.436;2022-07-29T03:09:56;99769.72;;;19.40;62.46
40730;BME280;26418;50.070;8.436;2022-07-29T03:12:22;99768.69;;;19.25;63.77
40730;BME280;26418;50.070;8.436;2022-07-29T03:14:49;99764.75;;;19.22;64.03
40730;BME280;26418;50.070;8.436;2022-07-29T03:17:15;99770.06;;;19.15;64.93
40730;BME280;26418;50.070;8.436;2022-07-29T03:19:42;99771.50;;;19.09;65.29
40730;BME280;26418;50.070;8.436;2022-07-29T03:22:08;99770.72;;;19.08;64.89
40730;BME280;26418;50.070;8.436;2022-07-29T03:24:35;99763.53;;;19.00;65.73
40730;BME280;26418;50.070;8.436;2022-07-29T03:27:02;99761.13;;;18.98;65.28
40730;BME280;26418;50.070;8.436;2022-07-29T03:29:28;99759.47;;;18.94;64.75
40730;BME280;26418;50.070;8.436;2022-07-29T03:31:54;99765.66;;;18.91;65.15
40730;BME280;26418;50.070;8.436;2022-07-29T03:34:20;99751.81;;;18.83;65.16
40730;BME280;26418;50.070;8.436;2022-07-29T03:36:46;99753.59;;;18.76;65.60
40730;BME280;26418;50.070;8.436;2022-07-29T03:39:15;99753.97;;;18.74;65.22
40730;BME280;26418;50.070;8.436;2022-07-29T03:41:44;99751.16;;;18.70;65.30
40730;BME280;26418;50.070;8.436;2022-07-29T03:44:11;99754.53;;;18.64;65.58
40730;BME280;26418;50.070;8.436;2022-07-29T03:46:39;99762.69;;;18.60;65.66
40730;BME280;26418;50.070;8.436;2022-07-29T03:49:08;99765.78;;;18.59;65.63
40730;BME280;26418;50.070;8.436;2022-07-29T03:51:35;99760.56;;;18.53;66.06
40730;BME280;26418;50.070;8.436;2022-07-29T03:54:04;99762.88;;;18.51;66.32
40730;BME280;26418;50.070;8.436;2022-07-29T03:56:32;99754.38;;;18.57;65.64
40730;BME280;26418;50.070;8.436;2022-07-29T03:59:01;99754.84;;;18.59;65.29
40730;BME280;26418;50.070;8.436;2022-07-29T04:01:27;99759.13;;;18.60;64.49
40730;BME280;26418;50.070;8.436;2022-07-29T04:03:53;99755.53;;;18.56;64.88
40730;BME280;26418;50.070;8.436;2022-07-29T04:06:18;99748.09;;;18.56;65.05
40730;BME280;26418;50.070;8.436;2022-07-29T04:08:44;99754.31;;;18.53;64.84
40730;BME280;26418;50.070;8.436;2022-07-29T04:11:10;99763.16;;;18.46;64.72
40730;BME280;26418;50.070;8.436;2022-07-29T04:13:35;99762.78;;;18.48;64.83
40730;BME280;26418;50.070;8.436;2022-07-29T04:16:01;99760.06;;;18.48;65.03
40730;BME280;26418;50.070;8.436;2022-07-29T04:18:27;99768.63;;;18.46;64.99
40730;BME280;26418;50.070;8.436;2022-07-29T04:20:52;99757.53;;;18.39;64.92
40730;BME280;26418;50.070;8.436;2022-07-29T04:23:18;99766.81;;;18.34;65.27
40730;BME280;26418;50.070;8.436;2022-07-29T04:25:43;99776.97;;;18.34;65.05
40730;BME280;26418;50.070;8.436;2022-07-29T04:28:09;99770.31;;;18.35;64.78
40730;BME280;26418;50.070;8.436;2022-07-29T04:30:35;99775.47;;;18.36;64.49
40730;BME280;26418;50.070;8.436;2022-07-29T04:33:03;99786.94;;;18.42;64.30
40730;BME280;26418;50.070;8.436;2022-07-29T04:35:30;99785.78;;;18.43;64.04
40730;BME280;26418;50.070;8.436;2022-07-29T04:37:55;99778.72;;;18.42;64.01
40730;BME280;26418;50.070;8.436;2022-07-29T04:40:21;99777.22;;;18.45;63.72
40730;BME280;26418;50.070;8.436;2022-07-29T04:42:46;99777.56;;;18.43;64.10
40730;BME280;26418;50.070;8.436;2022-07-29T04:45:12;99777.22;;;18.45;63.83
40730;BME280;26418;50.070;8.436;2022-07-29T04:47:37;99781.97;;;18.48;63.54
40730;BME280;26418;50.070;8.436;2022-07-29T04:50:03;99785.84;;;18.47;63.43
40730;BME280;26418;50.070;8.436;2022-07-29T04:52:30;99787.09;;;18.49;63.14
40730;BME280;26418;50.070;8.436;2022-07-29T04:54:55;99779.66;;;18.50;62.94
40730;BME280;26418;50.070;8.436;2022-07-29T04:57:21;99780.56;;;18.54;62.63
40730;BME280;26418;50.070;8.436;2022-07-29T04:59:46;99783.88;;;18.63;62.18
40730;BME280;26418;50.070;8.436;2022-07-29T05:02:12;99781.63;;;18.69;62.07
40730;BME280;26418;50.070;8.436;2022-07-29T05:04:37;99780.47;;;18.70;62.10
40730;BME280;26418;50.070;8.436;2022-07-29T05:07:03;99785.19;;;18.69;61.99
40730;BME280;26418;50.070;8.436;2022-07-29T05:09:28;99782.50;;;18.73;61.65
40730;BME280;26418;50.070;8.436;2022-07-29T05:11:53;99788.78;;;18.74;61.79
40730;BME280;26418;50.070;8.436;2022-07-29T05:14:19;99785.34;;;18.77;61.63
40730;BME280;26418;50.070;8.436;2022-07-29T05:16:45;99781.78;;;18.76;61.54
40730;BME280;26418;50.070;8.436;2022-07-29T05:19:10;99791.66;;;18.81;61.58
40730;BME280;26418;50.070;8.436;2022-07-29T05:21:35;99786.28;;;18.84;61.62
40730;BME280;26418;50.070;8.436;2022-07-29T05:24:01;99796.59;;;18.91;61.34
40730;BME280;26418;50.070;8.436;2022-07-29T05:26:26;99790.06;;;18.96;61.22
40730;BME280;26418;50.070;8.436;2022-07-29T05:28:52;99792.16;;;19.03;60.82
40730;BME280;26418;50.070;8.436;2022-07-29T05:31:19;99784.38;;;19.05;60.49
40730;BME280;26418;50.070;8.436;2022-07-29T05:33:44;99790.69;;;19.09;60.39
40730;BME280;26418;50.070;8.436;2022-07-29T05:36:09;99792.00;;;19.15;60.48
40730;BME280;26418;50.070;8.436;2022-07-29T05:38:35;99789.75;;;19.21;60.08
40730;BME280;26418;50.070;8.436;2022-07-29T05:41:01;99789.88;;;19.28;59.98
40730;BME280;26418;50.070;8.436;2022-07-29T05:43:28;99793.50;;;19.32;59.84
40730;BME280;26418;50.070;8.436;2022-07-29T05:45:53;99794.78;;;19.38;59.63
40730;BME280;26418;50.070;8.436;2022-07-29T05:48:19;99793.75;;;19.46;59.28
40730;BME280;26418;50.070;8.436;2022-07-29T05:50:45;99802.56;;;19.56;58.96
40730;BME280;26418;50.070;8.436;2022-07-29T05:53:10;99795.66;;;19.66;58.59
40730;BME280;26418;50.070;8.436;2022-07-29T05:55:35;99793.84;;;19.73;58.54
40730;BME280;26418;50.070;8.436;2022-07-29T05:58:01;99797.59;;;19.85;58.21
40730;BME280;26418;50.070;8.436;2022-07-29T06:00:26;99798.94;;;19.94;57.90
40730;BME280;26418;50.070;8.436;2022-07-29T06:02:52;99802.94;;;20.01;56.41
40730;BME280;26418;50.070;8.436;2022-07-29T06:05:17;99797.16;;;20.06;55.73
40730;BME280;26418;50.070;8.436;2022-07-29T06:07:43;99798.38;;;20.08;55.39
40730;BME280;26418;50.070;8.436;2022-07-29T06:10:08;99794.09;;;20.11;55.11
40730;BME280;26418;50.070;8.436;2022-07-29T06:12:34;99801.66;;;20.18;54.39
40730;BME280;26418;50.070;8.436;2022-07-29T06:14:59;99801.78;;;20.25;54.02
40730;BME280;26418;50.070;8.436;2022-07-29T06:17:25;99806.22;;;20.33;53.58
40730;BME280;26418;50.070;8.436;2022-07-29T06:19:50;99806.75;;;20.42;53.04
40730;BME280;26418;50.070;8.436;2022-07-29T06:22:16;99799.81;;;20.52;53.25
40730;BME280;26418;50.070;8.436;2022-07-29T06:24:42;99801.16;;;20.66;52.85
40730;BME280;26418;50.070;8.436;2022-07-29T06:27:10;99807.25;;;20.79;52.09
40730;BME280;26418;50.070;8.436;2022-07-29T06:29:35;99805.91;;;20.96;50.67
40730;BME280;26418;50.070;8.436;2022-07-29T06:32:01;99804.44;;;21.05;50.02
40730;BME280;26418;50.070;8.436;2022-07-29T06:34:27;99804.19;;;21.18;50.01
40730;BME280;26418;50.070;8.436;2022-07-29T06:36:53;99805.47;;;21.28;47.86
40730;BME280;26418;50.070;8.436;2022-07-29T06:39:19;99795.75;;;21.38;46.97
40730;BME280;26418;50.070;8.436;2022-07-29T06:41:48;99810.38;;;21.45;46.18
40730;BME280;26418;50.070;8.436;2022-07-29T06:44:15;99804.56;;;21.54;46.86
40730;BME280;26418;50.070;8.436;2022-07-29T06:46:40;99802.72;;;21.62;45.77
40730;BME280;26418;50.070;8.436;2022-07-29T06:49:06;99803.22;;;21.75;46.79
40730;BME280;26418;50.070;8.436;2022-07-29T06:51:32;99797.41;;;21.87;45.11
40730;BME280;26418;50.070;8.436;2022-07-29T06:53:57;99804.56;;;21.95;45.15
40730;BME280;26418;50.070;8.436;2022-07-29T06:56:23;99802.69;;;22.03;44.06
40730;BME280;26418;50.070;8.436;2022-07-29T06:58:49;99802.72;;;22.10;43.58
40730;BME280;26418;50.070;8.436;2022-07-29T07:01:14;99800.03;;;22.18;43.83
40730;BME280;26418;50.070;8.436;2022-07-29T07:03:40;99808.00;;;22.30;43.27
40730;BME280;26418;50.070;8.436;2022-07-29T07:06:07;99817.47;;;22.36;42.34
40730;BME280;26418;50.070;8.436;2022-07-29T07:08:32;99821.09;;;22.40;42.57
40730;BME280;26418;50.070;8.436;2022-07-29T07:10:58;99818.75;;;22.46;42.76
40730;BME280;26418;50.070;8.436;2022-07-29T07:13:24;99821.56;;;22.53;42.20
40730;BME280;26418;50.070;8.436;2022-07-29T07:15:50;99824.72;;;22.59;42.66
40730;BME280;26418;50.070;8.436;2022-07-29T07:18:16;99825.16;;;22.65;41.68
40730;BME280;26418;50.070;8.436;2022-07-29T07:20:42;99827.97;;;22.75;41.74
40730;BME280;26418;50.070;8.436;2022-07-29T07:23:08;99831.59;;;22.90;41.65
40730;BME280;26418;50.070;8.436;2022-07-29T07:25:33;99830.47;;;23.02;41.62
40730;BME280;26418;50.070;8.436;2022-07-29T07:27:59;99830.16;;;23.18;41.41
40730;BME280;26418;50.070;8.436;2022-07-29T07:30:25;99828.63;;;23.32;40.40
40730;BME280;26418;50.070;8.436;2022-07-29T07:32:50;99826.28;;;23.41;40.29
40730;BME280;26418;50.070;8.436;2022-07-29T07:35:16;99827.47;;;23.47;39.93
40730;BME280;26418;50.070;8.436;2022-07-29T07:37:41;99821.19;;;23.61;39.73
40730;BME280;26418;50.070;8.436;2022-07-29T07:40:08;99828.72;;;23.68;39.72
40730;BME280;26418;50.070;8.436;2022-07-29T07:42:34;99829.50;;;23.72;39.80
40730;BME280;26418;50.070;8.436;2022-07-29T07:45:00;99831.88;;;23.66;39.09
40730;BME280;26418;50.070;8.436;2022-07-29T07:47:25;99832.66;;;23.67;38.91
40730;BME280;26418;50.070;8.436;2022-07-29T07:49:51;99832.25;;;23.65;38.90
40730;BME280;26418;50.070;8.436;2022-07-29T07:52:18;99826.34;;;23.63;38.60
40730;BME280;26418;50.070;8.436;2022-07-29T07:54:44;99829.13;;;23.66;38.76
40730;BME280;26418;50.070;8.436;2022-07-29T07:57:10;99828.72;;;23.71;38.38
40730;BME280;26418;50.070;8.436;2022-07-29T07:59:36;99823.19;;;23.82;38.34
40730;BME280;26418;50.070;8.436;2022-07-29T08:02:02;99818.47;;;23.90;38.00
40730;BME280;26418;50.070;8.436;2022-07-29T08:04:27;99819.28;;;23.98;38.28
40730;BME280;26418;50.070;8.436;2022-07-29T08:06:53;99826.38;;;24.10;38.11
40730;BME280;26418;50.070;8.436;2022-07-29T08:09:23;99822.06;;;24.23;37.83
40730;BME280;26418;50.070;8.436;2022-07-29T08:11:49;99822.84;;;24.38;37.72
40730;BME280;26418;50.070;8.436;2022-07-29T08:14:14;99824.38;;;24.54;37.13
40730;BME280;26418;50.070;8.436;2022-07-29T08:16:40;99828.28;;;24.63;36.41
40730;BME280;26418;50.070;8.436;2022-07-29T08:19:06;99824.34;;;24.75;36.60
40730;BME280;26418;50.070;8.436;2022-07-29T08:21:32;99825.91;;;24.84;36.20
40730;BME280;26418;50.070;8.436;2022-07-29T08:23:57;99822.72;;;24.85;36.43
40730;BME280;26418;50.070;8.436;2022-07-29T08:26:42;99831.78;;;24.93;36.81
40730;BME280;26418;50.070;8.436;2022-07-29T08:29:09;99828.19;;;25.03;36.55
40730;BME280;26418;50.070;8.436;2022-07-29T08:31:35;99828.16;;;25.10;36.41
40730;BME280;26418;50.070;8.436;2022-07-29T08:34:01;99830.84;;;25.25;36.37
40730;BME280;26418;50.070;8.436;2022-07-29T08:36:27;99820.13;;;25.38;35.96
40730;BME280;26418;50.070;8.436;2022-07-29T08:38:53;99828.31;;;25.63;35.82
40730;BME280;26418;50.070;8.436;2022-07-29T08:41:19;99822.97;;;25.90;35.46
40730;BME280;26418;50.070;8.436;2022-07-29T08:43:46;99803.03;;;26.10;35.37
40730;BME280;26418;50.070;8.436;2022-07-29T08:46:11;99822.88;;;26.47;34.48
40730;BME280;26418;50.070;8.436;2022-07-29T08:48:37;99793.81;;;26.59;34.05
40730;BME280;26418;50.070;8.436;2022-07-29T08:51:06;99812.88;;;26.91;33.73
40730;BME280;26418;50.070;8.436;2022-07-29T08:53:33;99817.59;;;27.25;32.89
40730;BME280;26418;50.070;8.436;2022-07-29T08:55:59;99818.78;;;27.28;32.56
40730;BME280;26418;50.070;8.436;2022-07-29T08:58:26;99825.94;;;27.25;32.42
40730;BME280;26418;50.070;8.436;2022-07-29T09:00:56;99825.97;;;27.22;32.98
40730;BME280;26418;50.070;8.436;2022-07-29T09:03:29;99831.75;;;27.35;33.49
40730;BME280;26418;50.070;8.436;2022-07-29T09:05:55;99830.69;;;27.56;33.49
40730;BME280;26418;50.070;8.436;2022-07-29T09:08:24;99814.50;;;27.78;33.06
40730;BME280;26418;50.070;8.436;2022-07-29T09:10:50;99816.41;;;28.08;31.70
40730;BME280;26418;50.070;8.436;2022-07-29T09:13:17;99817.63;;;28.07;31.62
40730;BME280;26418;50.070;8.436;2022-07-29T09:15:43;99815.56;;;28.12;31.75
40730;BME280;26418;50.070;8.436;2022-07-29T09:18:10;99821.53;;;28.10;31.65
40730;BME280;26418;50.070;8.436;2022-07-29T09:20:35;99820.13;;;28.22;32.09
40730;BME280;26418;50.070;8.436;2022-07-29T09:23:19;99818.63;;;28.61;32.21
40730;BME280;26418;50.070;8.436;2022-07-29T09:25:45;99813.94;;;28.98;31.66
40730;BME280;26418;50.070;8.436;2022-07-29T09:28:15;99813.56;;;28.96;31.22
40730;BME280;26418;50.070;8.436;2022-07-29T09:30:56;99818.06;;;29.10;31.40
40730;BME280;26418;50.070;8.436;2022-07-29T09:33:32;99822.25;;;29.18;30.90
40730;BME280;26418;50.070;8.436;2022-07-29T09:36:06;99802.09;;;29.31;30.33
40730;BME280;26418;50.070;8.436;2022-07-29T09:38:33;99813.38;;;29.44;30.55
40730;BME280;26418;50.070;8.436;2022-07-29T09:41:01;99811.28;;;29.48;30.66
40730;BME280;26418;50.070;8.436;2022-07-29T09:43:27;99795.81;;;29.27;30.97
40730;BME280;26418;50.070;8.436;2022-07-29T09:45:54;99796.78;;;29.20;30.98
40730;BME280;26418;50.070;8.436;2022-07-29T09:48:22;99797.34;;;29.48;31.46
40730;BME280;26418;50.070;8.436;2022-07-29T09:50:48;99803.91;;;29.58;31.03
40730;BME280;26418;50.070;8.436;2022-07-29T09:53:35;99799.19;;;29.71;31.08
40730;BME280;26418;50.070;8.436;2022-07-29T09:56:01;99794.06;;;30.19;30.64
40730;BME280;26418;50.070;8.436;2022-07-29T09:58:26;99802.41;;;30.65;29.36
40730;BME280;26418;50.070;8.436;2022-07-29T10:00:53;99786.81;;;30.81;29.31
40730;BME280;26418;50.070;8.436;2022-07-29T10:03:20;99802.13;;;30.89;29.23
40730;BME280;26418;50.070;8.436;2022-07-29T10:05:46;99801.78;;;31.00;29.69
40730;BME280;26418;50.070;8.436;2022-07-29T10:08:28;99798.75;;;30.94;28.97
40730;BME280;26418;50.070;8.436;2022-07-29T10:11:09;99778.22;;;30.88;28.76
40730;BME280;26418;50.070;8.436;2022-07-29T10:13:36;99792.69;;;31.12;29.17
40730;BME280;26418;50.070;8.436;2022-07-29T10:16:02;99792.69;;;31.12;29.58
40730;BME280;26418;50.070;8.436;2022-07-29T10:18:28;99795.50;;;31.12;30.07
40730;BME280;26418;50.070;8.436;2022-07-29T10:20:54;99789.09;;;31.12;29.24
40730;BME280;26418;50.070;8.436;2022-07-29T10:23:20;99759.31;;;30.66;29.88
40730;BME280;26418;50.070;8.436;2022-07-29T10:25:45;99794.84;;;30.79;29.62
40730;BME280;26418;50.070;8.436;2022-07-29T10:28:11;99784.28;;;30.99;29.28
40730;BME280;26418;50.070;8.436;2022-07-29T10:30:37;99781.84;;;31.27;28.89
40730;BME280;26418;50.070;8.436;2022-07-29T10:43:55;99779.19;;;31.97;27.27
40730;BME280;26418;50.070;8.436;2022-07-29T10:46:22;99779.94;;;31.50;28.30
40730;BME280;26418;50.070;8.436;2022-07-29T10:49:17;99777.59;;;31.48;28.25
40730;BME280;26418;50.070;8.436;2022-07-29T10:54:43;99773.66;;;31.72;27.79
40730;BME280;26418;50.070;8.436;2022-07-29T10:57:29;99777.69;;;32.19;27.60
40730;BME280;26418;50.070;8.436;2022-07-29T11:05:14;99765.41;;;33.55;25.92
40730;BME280;26418;50.070;8.436;2022-07-29T11:10:41;99775.47;;;33.93;25.26
40730;BME280;26418;50.070;8.436;2022-07-29T11:13:06;99751.66;;;33.38;25.18
40730;BME280;26418;50.070;8.436;2022-07-29T11:15:57;99763.47;;;33.33;25.77
40730;BME280;26418;50.070;8.436;2022-07-29T11:18:23;99754.38;;;33.20;26.37
40730;BME280;26418;50.070;8.436;2022-07-29T11:20:51;99752.88;;;32.97;26.16
40730;BME280;26418;50.070;8.436;2022-07-29T11:23:25;99755.50;;;32.91;26.94
40730;BME280;26418;50.070;8.436;2022-07-29T11:31:45;99757.19;;;33.20;26.32
40730;BME280;26418;50.070;8.436;2022-07-29T11:34:25;99756.56;;;33.25;26.30
40730;BME280;26418;50.070;8.436;2022-07-29T11:44:58;99760.34;;;34.00;25.63
40730;BME280;26418;50.070;8.436;2022-07-29T11:47:29;99753.81;;;34.12;25.48
40730;BME280;26418;50.070;8.436;2022-07-29T11:49:56;99745.38;;;34.50;24.92
40730;BME280;26418;50.070;8.436;2022-07-29T11:52:45;99739.91;;;34.27;24.84
40730;BME280;26418;50.070;8.436;2022-07-29T11:55:19;99737.44;;;34.01;25.22
40730;BME280;26418;50.070;8.436;2022-07-29T11:57:46;99741.50;;;34.38;25.01
40730;BME280;26418;50.070;8.436;2022-07-29T12:00:24;99731.91;;;34.63;24.28
40730;BME280;26418;50.070;8.436;2022-07-29T12:02:50;99743.41;;;34.84;24.22
40730;BME280;26418;50.070;8.436;2022-07-29T12:05:19;99735.34;;;34.67;24.69
40730;BME280;26418;50.070;8.436;2022-07-29T12:07:45;99731.50;;;34.46;24.73
40730;BME280;26418;50.070;8.436;2022-07-29T12:10:11;99732.91;;;34.13;24.99
40730;BME280;26418;50.070;8.436;2022-07-29T12:12:37;99735.09;;;34.00;25.83
40730;BME280;26418;50.070;8.436;2022-07-29T12:17:38;99726.66;;;33.81;25.62
40730;BME280;26418;50.070;8.436;2022-07-29T12:20:05;99724.94;;;34.30;25.60
40730;BME280;26418;50.070;8.436;2022-07-29T12:22:39;99717.25;;;34.68;24.94
40730;BME280;26418;50.070;8.436;2022-07-29T12:25:09;99712.31;;;35.30;24.78
40730;BME280;26418;50.070;8.436;2022-07-29T12:27:36;99702.47;;;35.98;24.06
40730;BME280;26418;50.070;8.436;2022-07-29T12:30:07;99712.44;;;36.24;23.01
40730;BME280;26418;50.070;8.436;2022-07-29T12:35:08;99703.38;;;36.79;22.35
40730;BME280;26418;50.070;8.436;2022-07-29T12:37:36;99691.66;;;37.17;22.39
40730;BME280;26418;50.070;8.436;2022-07-29T12:40:06;99701.44;;;37.57;21.55
40730;BME280;26418;50.070;8.436;2022-07-29T12:42:32;99696.66;;;37.27;21.31
40730;BME280;26418;50.070;8.436;2022-07-29T12:44:58;99699.41;;;37.22;21.78
40730;BME280;26418;50.070;8.436;2022-07-29T12:47:24;99690.31;;;37.12;21.58
40730;BME280;26418;50.070;8.436;2022-07-29T12:49:50;99693.22;;;37.18;21.50
40730;BME280;26418;50.070;8.436;2022-07-29T12:52:33;99681.03;;;36.76;21.74
40730;BME280;26418;50.070;8.436;2022-07-29T12:55:00;99686.00;;;36.36;22.67
40730;BME280;26418;50.070;8.436;2022-07-29T12:57:27;99676.69;;;36.15;22.43
40730;BME280;26418;50.070;8.436;2022-07-29T13:00:11;99681.16;;;36.22;23.06
40730;BME280;26418;50.070;8.436;2022-07-29T13:02:38;99682.88;;;36.04;22.85
40730;BME280;26418;50.070;8.436;2022-07-29T13:05:05;99682.34;;;35.76;22.89
40730;BME280;26418;50.070;8.436;2022-07-29T13:07:37;99678.56;;;35.79;23.21
40730;BME280;26418;50.070;8.436;2022-07-29T13:10:11;99684.31;;;35.84;23.25
40730;BME280;26418;50.070;8.436;2022-07-29T13:12:37;99685.03;;;35.70;23.22
40730;BME280;26418;50.070;8.436;2022-07-29T13:15:16;99689.16;;;35.60;23.50
40730;BME280;26418;50.070;8.436;2022-07-29T13:17:42;99686.22;;;35.78;23.09
40730;BME280;26418;50.070;8.436;2022-07-29T13:20:12;99690.41;;;35.83;23.64
40730;BME280;26418;50.070;8.436;2022-07-29T13:22:38;99691.09;;;35.53;23.04
40730;BME280;26418;50.070;8.436;2022-07-29T13:25:09;99681.31;;;35.15;23.03
40730;BME280;26418;50.070;8.436;2022-07-29T13:27:37;99691.38;;;34.55;23.79
40730;BME280;26418;50.070;8.436;2022-07-29T13:30:08;99678.22;;;33.99;24.53
40730;BME280;26418;50.070;8.436;2022-07-29T13:32:33;99683.00;;;33.71;24.97
40730;BME280;26418;50.070;8.436;2022-07-29T13:35:01;99681.59;;;33.38;25.25
40730;BME280;26418;50.070;8.436;2022-07-29T13:37:28;99677.69;;;33.36;25.68
40730;BME280;26418;50.070;8.436;2022-07-29T13:39:55;99683.75;;;33.44;25.60
40730;BME280;26418;50.070;8.436;2022-07-29T13:42:21;99685.59;;;33.28;25.51
40730;BME280;26418;50.070;8.436;2022-07-29T13:44:47;99687.09;;;33.11;25.92
40730;BME280;26418;50.070;8.436;2022-07-29T13:47:13;99679.56;;;32.89;26.18
40730;BME280;26418;50.070;8.436;2022-07-29T13:49:41;99675.72;;;32.42;27.91
40730;BME280;26418;50.070;8.436;2022-07-29T13:52:06;99689.34;;;31.73;29.62
40730;BME280;26418;50.070;8.436;2022-07-29T13:54:32;99695.91;;;31.31;30.24
40730;BME280;26418;50.070;8.436;2022-07-29T13:57:01;99702.38;;;31.02;31.89
40730;BME280;26418;50.070;8.436;2022-07-29T13:59:29;99698.03;;;30.76;32.99